Time;durP1;ratioP1;P1;durP2;ratioP2;P2;SDS_P1;SDS_P2;PMS_P1;PMS_P2;Temp;Humidity;BMP_temperature;BMP_pressure;BME280_temperature;BME280_humidity;BME280_pressure;Samples;Min_cycle;Max_cycle;Signal;HPM_P1;HPM_P2
2022/05/22 00:02:30;;;;;;;;;;;;;;;;;;5088461;28;20001;-79
2022/05/22 00:05:17;;;;;;;;;;;;;;;;;;5074530;28;19917;-81
2022/05/22 00:08:04;;;;;;;;;;;;;;;;;;5091886;28;19909;-80
2022/05/22 00:10:50;;;;;;;;;;;;;;;;;;5091151;28;19908;-79
2022/05/22 00:13:36;;;;;;;;;;;;;;;;;;5105518;28;19947;-79
2022/05/22 00:16:41;;;;;;;;;;;;;;;;;;5091728;28;20283;-79
2022/05/22 00:19:28;;;;;;;;;;;;;;;;;;5084471;28;19915;-79
2022/05/22 00:22:16;;;;;;;;;;;;;;;;;;5090169;28;20292;-79
2022/05/22 00:25:02;;;;;;;;;;;;;;;;;;5091629;28;19919;-79
2022/05/22 00:27:52;;;;;;;;;;;;;;;;;;5089197;28;19908;-79
2022/05/22 00:30:39;;;;;;;;;;;;;;;;;;5091795;28;20417;-79
2022/05/22 00:33:25;;;;;;;;;;;;;;;;;;5103137;28;20430;-79
2022/05/22 00:36:12;;;;;;;;;;;;;;;;;;5091593;28;19912;-79
2022/05/22 00:38:58;;;;;;;;;;;;;;;;;;5091081;28;19916;-79
2022/05/22 00:41:45;;;;;;;;;;;;;;;;;;5091931;28;19908;-80
2022/05/22 00:44:31;;;;;;;;;;;;;;;;;;5091501;28;19923;-79
2022/05/22 00:47:18;;;;;;;;;;;;;;;;;;5101671;28;19935;-80
2022/05/22 00:50:04;;;;;;;;;;;;;;;;;;5080732;28;19917;-79
2022/05/22 00:52:51;;;;;;;;;;;;;;;;;;5095901;28;19926;-80
2022/05/22 00:55:37;;;;;;;;;;;;;;;;;;5087474;28;19915;-80
2022/05/22 00:58:24;;;;;;;;;;;;;;;;;;5083465;28;20252;-80
2022/05/22 01:01:10;;;;;;;;;;;;;;;;;;5093541;28;20376;-79
2022/05/22 01:03:57;;;;;;;;;;;;;;;;;;5091683;28;19912;-79
2022/05/22 01:06:43;;;;;;;;;;;;;;;;;;5090876;28;19912;-80
2022/05/22 01:09:30;;;;;;;;;;;;;;;;;;5091268;28;19915;-79
2022/05/22 01:12:16;;;;;;;;;;;;;;;;;;5079287;28;19928;-80
2022/05/22 01:15:03;;;;;;;;;;;;;;;;;;5090165;28;19908;-80
2022/05/22 01:17:49;;;;;;;;;;;;;;;;;;5091446;28;19926;-80
2022/05/22 01:20:36;;;;;;;;;;;;;;;;;;5093765;28;19922;-80
2022/05/22 01:23:25;;;;;;;;;;;;;;;;;;5103517;27;19918;-80
2022/05/22 01:26:11;;;;;;;;;;;;;;;;;;5090481;28;19958;-80
2022/05/22 01:28:58;;;;;;;;;;;;;;;;;;5088329;28;19944;-79
2022/05/22 01:31:44;;;;;;;;;;;;;;;;;;5103666;28;19923;-80
2022/05/22 01:34:31;;;;;;;;;;;;;;;;;;5079419;28;19908;-80
2022/05/22 01:37:17;;;;;;;;;;;;;;;;;;5091839;28;19916;-80
2022/05/22 01:40:04;;;;;;;;;;;;;;;;;;5098965;28;19908;-80
2022/05/22 01:42:50;;;;;;;;;;;;;;;;;;5083003;28;19912;-79
2022/05/22 01:45:37;;;;;;;;;;;;;;;;;;5089324;28;20296;-79
2022/05/22 01:48:23;;;;;;;;;;;;;;;;;;5090328;28;19908;-79
2022/05/22 01:51:10;;;;;;;;;;;;;;;;;;5084954;28;19908;-79
2022/05/22 01:53:59;;;;;;;;;;;;;;;;;;5085483;28;19931;-79
2022/05/22 01:56:45;;;;;;;;;;;;;;;;;;5090094;28;19919;-77
2022/05/22 01:59:32;;;;;;;;;;;;;;;;;;5075879;28;19919;-78
2022/05/22 02:02:18;;;;;;;;;;;;;;;;;;5090362;28;19908;-79
2022/05/22 02:05:05;;;;;;;;;;;;;;;;;;5094139;28;19908;-79
2022/05/22 02:10:56;;;;;;;;;;;;;;;;;;5079309;28;19918;-78
2022/05/22 02:13:44;;;;;;;;;;;;;;;;;;5080187;28;19923;-78
2022/05/22 02:16:30;;;;;;;;;;;;;;;;;;5089096;28;19908;-77
2022/05/22 02:19:17;;;;;;;;;;;;;;;;;;5082370;28;19919;-79
2022/05/22 02:22:03;;;;;;;;;;;;;;;;;;5087677;28;19915;-79
2022/05/22 02:24:50;;;;;;;;;;;;;;;;;;5089574;28;19915;-79
2022/05/22 02:27:36;;;;;;;;;;;;;;;;;;5081545;28;19923;-79
2022/05/22 02:30:23;;;;;;;;;;;;;;;;;;5089266;28;19931;-78
2022/05/22 02:33:10;;;;;;;;;;;;;;;;;;5088977;28;20383;-77
2022/05/22 02:35:56;;;;;;;;;;;;;;;;;;5088815;28;20087;-78
2022/05/22 02:38:43;;;;;;;;;;;;;;;;;;5087889;28;19908;-78
2022/05/22 02:41:29;;;;;;;;;;;;;;;;;;5082222;28;20374;-78
2022/05/22 02:44:16;;;;;;;;;;;;;;;;;;5114107;27;19913;-78
2022/05/22 02:47:02;;;;;;;;;;;;;;;;;;5102847;27;20279;-78
2022/05/22 02:49:49;;;;;;;;;;;;;;;;;;5087674;28;19912;-79
2022/05/22 02:52:35;;;;;;;;;;;;;;;;;;5080741;28;19920;-79
2022/05/22 02:55:22;;;;;;;;;;;;;;;;;;5084224;28;19923;-79
2022/05/22 02:58:08;;;;;;;;;;;;;;;;;;5089388;28;19912;-79
2022/05/22 03:00:55;;;;;;;;;;;;;;;;;;5082542;28;19912;-79
2022/05/22 03:03:41;;;;;;;;;;;;;;;;;;5090878;28;19912;-78
2022/05/22 03:06:40;;;;;;;;;;;;;;;;;;5087670;28;19915;-78
2022/05/22 03:09:26;;;;;;;;;;;;;;;;;;5085028;28;19935;-78
2022/05/22 03:12:14;;;;;;;;;;;;;;;;;;5087920;28;20293;-78
2022/05/22 03:15:00;;;;;;;;;;;;;;;;;;5078201;28;19915;-78
2022/05/22 03:17:47;;;;;;;;;;;;;;;;;;5087941;28;19923;-77
2022/05/22 03:20:34;;;;;;;;;;;;;;;;;;5080982;28;20368;-78
2022/05/22 03:23:20;;;;;;;;;;;;;;;;;;5094120;28;19912;-79
2022/05/22 03:26:09;;;;;;;;;;;;;;;;;;5088930;28;19916;-79
2022/05/22 03:28:56;;;;;;;;;;;;;;;;;;5086107;28;19920;-79
2022/05/22 03:31:42;;;;;;;;;;;;;;;;;;5097850;28;19922;-79
2022/05/22 03:34:29;;;;;;;;;;;;;;;;;;5086389;28;19928;-79
2022/05/22 03:37:15;;;;;;;;;;;;;;;;;;5096681;28;19908;-79
2022/05/22 03:40:02;;;;;;;;;;;;;;;;;;5085035;28;19919;-78
2022/05/22 03:42:48;;;;;;;;;;;;;;;;;;5091586;28;19908;-78
2022/05/22 03:45:35;;;;;;;;;;;;;;;;;;5091073;28;19908;-80
2022/05/22 03:48:21;;;;;;;;;;;;;;;;;;5091405;28;19912;-77
2022/05/22 03:51:10;;;;;;;;;;;;;;;;;;5080412;28;19935;-78
2022/05/22 03:53:58;;;;;;;;;;;;;;;;;;5091576;28;19924;-77
2022/05/22 03:56:45;;;;;;;;;;;;;;;;;;5105484;28;20281;-79
2022/05/22 03:59:31;;;;;;;;;;;;;;;;;;5092693;28;20279;-79
2022/05/22 04:02:18;;;;;;;;;;;;;;;;;;5088443;28;19919;-79
2022/05/22 04:05:07;;;;;;;;;;;;;;;;;;5091750;28;20578;-78
2022/05/22 04:07:53;;;;;;;;;;;;;;;;;;5092089;28;19908;-78
2022/05/22 04:10:39;;;;;;;;;;;;;;;;;;5091796;28;20319;-78
2022/05/22 04:13:26;;;;;;;;;;;;;;;;;;5091923;28;19920;-79
2022/05/22 04:16:12;;;;;;;;;;;;;;;;;;5093119;28;19912;-78
2022/05/22 04:18:59;;;;;;;;;;;;;;;;;;5104841;28;19923;-79
2022/05/22 04:21:45;;;;;;;;;;;;;;;;;;5091589;28;19916;-79
2022/05/22 04:27:37;;;;;;;;;;;;;;;;;;5093706;28;20503;-79
2022/05/22 04:30:24;;;;;;;;;;;;;;;;;;5091805;28;19926;-78
2022/05/22 04:33:10;;;;;;;;;;;;;;;;;;5080318;28;19939;-79
2022/05/22 04:35:57;;;;;;;;;;;;;;;;;;5104051;28;20290;-78
2022/05/22 04:38:43;;;;;;;;;;;;;;;;;;5090690;28;19915;-79
2022/05/22 04:41:29;;;;;;;;;;;;;;;;;;5091162;28;20307;-79
2022/05/22 04:44:16;;;;;;;;;;;;;;;;;;5092140;28;20013;-79
2022/05/22 04:47:02;;;;;;;;;;;;;;;;;;5090594;28;20367;-79
2022/05/22 04:49:49;;;;;;;;;;;;;;;;;;5091222;28;20392;-77
2022/05/22 04:52:35;;;;;;;;;;;;;;;;;;5103707;28;20308;-80
2022/05/22 04:55:22;;;;;;;;;;;;;;;;;;5074260;28;19920;-80
2022/05/22 04:58:09;;;;;;;;;;;;;;;;;;5085082;28;20286;-81
2022/05/22 05:00:55;;;;;;;;;;;;;;;;;;5091401;28;20271;-83
2022/05/22 05:03:41;;;;;;;;;;;;;;;;;;5091591;28;19912;-79
2022/05/22 05:06:29;;;;;;;;;;;;;;;;;;5084608;28;20273;-78
2022/05/22 05:09:15;;;;;;;;;;;;;;;;;;5092965;28;19908;-80
2022/05/22 05:12:02;;;;;;;;;;;;;;;;;;5088666;28;19912;-80
2022/05/22 05:14:48;;;;;;;;;;;;;;;;;;5089512;28;20291;-80
2022/05/22 05:17:34;;;;;;;;;;;;;;;;;;5081722;28;19912;-84
2022/05/22 05:20:23;;;;;;;;;;;;;;;;;;5090377;28;20257;-80
2022/05/22 05:23:09;;;;;;;;;;;;;;;;;;5090396;28;19914;-80
2022/05/22 05:25:56;;;;;;;;;;;;;;;;;;5100614;28;20504;-79
2022/05/22 05:28:42;;;;;;;;;;;;;;;;;;5084617;28;19923;-77
2022/05/22 05:31:28;;;;;;;;;;;;;;;;;;5086767;28;19920;-80
2022/05/22 05:34:15;;;;;;;;;;;;;;;;;;5083328;28;20247;-78
2022/05/22 05:37:01;;;;;;;;;;;;;;;;;;5084168;28;19919;-78
2022/05/22 05:39:48;;;;;;;;;;;;;;;;;;5088013;28;19922;-78
2022/05/22 05:42:34;;;;;;;;;;;;;;;;;;5086969;28;20296;-79
2022/05/22 05:45:21;;;;;;;;;;;;;;;;;;5085723;28;20371;-78
2022/05/22 05:48:07;;;;;;;;;;;;;;;;;;5084468;28;19923;-78
2022/05/22 05:50:55;;;;;;;;;;;;;;;;;;5083213;28;20679;-79
2022/05/22 05:53:42;;;;;;;;;;;;;;;;;;5083216;28;19935;-79
2022/05/22 05:56:28;;;;;;;;;;;;;;;;;;5085886;28;19942;-80
2022/05/22 05:59:15;;;;;;;;;;;;;;;;;;5087672;28;19918;-80
2022/05/22 06:02:01;;;;;;;;;;;;;;;;;;5089780;28;19916;-78
2022/05/22 06:04:48;;;;;;;;;;;;;;;;;;5078007;28;20449;-79
2022/05/22 06:07:34;;;;;;;;;;;;;;;;;;5085024;28;20360;-78
2022/05/22 06:10:21;;;;;;;;;;;;;;;;;;5084785;28;20306;-79
2022/05/22 06:13:10;;;;;;;;;;;;;;;;;;5093857;28;19920;-80
2022/05/22 06:15:56;;;;;;;;;;;;;;;;;;5089352;28;19916;-79
2022/05/22 06:18:43;;;;;;;;;;;;;;;;;;5075780;28;20458;-80
2022/05/22 06:21:30;;;;;;;;;;;;;;;;;;5081456;28;19919;-78
2022/05/22 06:24:16;;;;;;;;;;;;;;;;;;5080206;28;19912;-78
2022/05/22 06:27:03;;;;;;;;;;;;;;;;;;5083748;28;19912;-78
2022/05/22 06:29:49;;;;;;;;;;;;;;;;;;5083067;28;19920;-78
2022/05/22 06:32:35;;;;;;;;;;;;;;;;;;5088792;28;19916;-78
2022/05/22 06:35:22;;;;;;;;;;;;;;;;;;5081295;28;19918;-78
2022/05/22 06:38:10;;;;;;;;;;;;;;;;;;5082160;28;19916;-78
2022/05/22 06:41:15;;;;;;;;;;;;;;;;;;5082164;28;19920;-79
2022/05/22 06:44:01;;;;;;;;;;;;;;;;;;5082478;28;19916;-78
2022/05/22 06:46:48;;;;;;;;;;;;;;;;;;5084445;28;20414;-79
2022/05/22 06:49:34;;;;;;;;;;;;;;;;;;5090046;28;20192;-78
2022/05/22 06:52:21;;;;;;;;;;;;;;;;;;5081107;28;20596;-78
2022/05/22 06:55:07;;;;;;;;;;;;;;;;;;5093078;28;20399;-78
2022/05/22 06:57:54;;;;;;;;;;;;;;;;;;5082718;28;20391;-79
2022/05/22 07:00:40;;;;;;;;;;;;;;;;;;5082676;28;19957;-80
2022/05/22 07:03:27;;;;;;;;;;;;;;;;;;5080493;28;19916;-79
2022/05/22 07:06:13;;;;;;;;;;;;;;;;;;5083370;28;19920;-79
2022/05/22 07:09:00;;;;;;;;;;;;;;;;;;5090050;28;19922;-81
2022/05/22 07:11:47;;;;;;;;;;;;;;;;;;5085819;28;20443;-80
2022/05/22 07:14:34;;;;;;;;;;;;;;;;;;5085056;28;19920;-80
2022/05/22 07:17:23;;;;;;;;;;;;;;;;;;5088484;28;19912;-79
2022/05/22 07:20:10;;;;;;;;;;;;;;;;;;5086550;28;20355;-77
2022/05/22 07:22:57;;;;;;;;;;;;;;;;;;5087818;28;19938;-79
2022/05/22 07:25:43;;;;;;;;;;;;;;;;;;5090163;28;19916;-79
2022/05/22 07:28:29;;;;;;;;;;;;;;;;;;5089456;28;19920;-79
2022/05/22 07:31:16;;;;;;;;;;;;;;;;;;5090898;28;20493;-78
2022/05/22 07:34:02;;;;;;;;;;;;;;;;;;5089778;28;19921;-80
2022/05/22 07:36:49;;;;;;;;;;;;;;;;;;5091134;28;19908;-79
2022/05/22 07:39:36;;;;;;;;;;;;;;;;;;5104418;27;19912;-78
2022/05/22 07:42:22;;;;;;;;;;;;;;;;;;5098967;28;19934;-79
2022/05/22 07:45:11;;;;;;;;;;;;;;;;;;5094057;28;19916;-76
2022/05/22 07:47:58;;;;;;;;;;;;;;;;;;5088680;28;19920;-76
2022/05/22 07:50:44;;;;;;;;;;;;;;;;;;5090119;28;19909;-77
2022/05/22 07:53:31;;;;;;;;;;;;;;;;;;5092597;28;19920;-77
2022/05/22 07:56:21;;;;;;;;;;;;;;;;;;5091239;28;20175;-77
2022/05/22 07:59:07;;;;;;;;;;;;;;;;;;5091290;28;19908;-78
2022/05/22 08:01:54;;;;;;;;;;;;;;;;;;5099892;28;19908;-78
2022/05/22 08:04:40;;;;;;;;;;;;;;;;;;5091920;28;19915;-77
2022/05/22 08:07:27;;;;;;;;;;;;;;;;;;5074304;28;19934;-76
2022/05/22 08:10:13;;;;;;;;;;;;;;;;;;5086763;28;19915;-77
2022/05/22 08:12:59;;;;;;;;;;;;;;;;;;5091849;28;20318;-77
2022/05/22 08:15:46;;;;;;;;;;;;;;;;;;5091669;28;19928;-77
2022/05/22 08:18:32;;;;;;;;;;;;;;;;;;5091698;28;20383;-77
2022/05/22 08:21:19;;;;;;;;;;;;;;;;;;5094269;28;20376;-77
2022/05/22 08:24:05;;;;;;;;;;;;;;;;;;5101029;28;19912;-76
2022/05/22 08:26:52;;;;;;;;;;;;;;;;;;5094475;28;20372;-78
2022/05/22 08:29:41;;;;;;;;;;;;;;;;;;5096599;28;19924;-76
2022/05/22 08:32:28;;;;;;;;;;;;;;;;;;5098494;28;20429;-78
2022/05/22 08:35:15;;;;;;;;;;;;;;;;;;5092549;28;19908;-77
2022/05/22 08:38:01;;;;;;;;;;;;;;;;;;5092923;28;19923;-77
2022/05/22 08:40:47;;;;;;;;;;;;;;;;;;5092198;28;19947;-78
2022/05/22 08:43:34;;;;;;;;;;;;;;;;;;5080262;28;19915;-78
2022/05/22 08:46:21;;;;;;;;;;;;;;;;;;5092410;28;19917;-79
2022/05/22 08:49:07;;;;;;;;;;;;;;;;;;5083816;28;19916;-77
2022/05/22 08:51:53;;;;;;;;;;;;;;;;;;5091647;28;20011;-77
2022/05/22 08:54:40;;;;;;;;;;;;;;;;;;5100405;28;19922;-78
2022/05/22 09:00:35;;;;;;;;;;;;;;;;;;5090835;28;20284;-78
2022/05/22 09:03:24;;;;;;;;;;;;;;;;;;5091053;28;19919;-78
2022/05/22 09:06:11;;;;;;;;;;;;;;;;;;5091028;28;19908;-77
2022/05/22 09:08:57;;;;;;;;;;;;;;;;;;5095919;28;19915;-77
2022/05/22 09:11:44;;;;;;;;;;;;;;;;;;5090181;28;19918;-77
2022/05/22 09:14:30;;;;;;;;;;;;;;;;;;5091469;28;19923;-78
2022/05/22 09:17:17;;;;;;;;;;;;;;;;;;5091271;28;19919;-77
2022/05/22 09:20:04;;;;;;;;;;;;;;;;;;5091304;28;19908;-76
2022/05/22 09:22:50;;;;;;;;;;;;;;;;;;5081365;28;19908;-77
2022/05/22 09:25:37;;;;;;;;;;;;;;;;;;5102631;28;19919;-77
2022/05/22 09:28:23;;;;;;;;;;;;;;;;;;5089717;28;19912;-77
2022/05/22 09:31:10;;;;;;;;;;;;;;;;;;5090103;28;19927;-77
2022/05/22 09:33:56;;;;;;;;;;;;;;;;;;5083241;28;19920;-76
2022/05/22 09:36:43;;;;;;;;;;;;;;;;;;5090529;28;19908;-78
2022/05/22 09:39:29;;;;;;;;;;;;;;;;;;5108766;27;20364;-78
2022/05/22 09:42:16;;;;;;;;;;;;;;;;;;5089653;28;19908;-78
2022/05/22 09:45:02;;;;;;;;;;;;;;;;;;5090619;28;19912;-77
2022/05/22 09:47:49;;;;;;;;;;;;;;;;;;5087042;28;19908;-78
2022/05/22 09:50:35;;;;;;;;;;;;;;;;;;5088504;28;19951;-76
2022/05/22 09:53:22;;;;;;;;;;;;;;;;;;5089553;28;19927;-76
2022/05/22 09:56:08;;;;;;;;;;;;;;;;;;5076543;28;19915;-77
2022/05/22 09:58:55;;;;;;;;;;;;;;;;;;5089493;28;20617;-77
2022/05/22 10:01:41;;;;;;;;;;;;;;;;;;5089904;28;20633;-77
2022/05/22 10:04:28;;;;;;;;;;;;;;;;;;5090931;28;20513;-77
2022/05/22 10:07:14;;;;;;;;;;;;;;;;;;5089923;28;19914;-77
2022/05/22 10:10:01;;;;;;;;;;;;;;;;;;5090637;28;19908;-78
2022/05/22 10:12:47;;;;;;;;;;;;;;;;;;5095500;28;19922;-77
2022/05/22 10:15:33;;;;;;;;;;;;;;;;;;5094199;28;19923;-78
2022/05/22 10:18:20;;;;;;;;;;;;;;;;;;5089539;28;20350;-77
2022/05/22 10:21:06;;;;;;;;;;;;;;;;;;5096836;28;19912;-77
2022/05/22 10:23:53;;;;;;;;;;;;;;;;;;5087634;28;19918;-77
2022/05/22 10:26:39;;;;;;;;;;;;;;;;;;5100516;28;20264;-79
2022/05/22 10:29:26;;;;;;;;;;;;;;;;;;5089019;28;19957;-76
2022/05/22 10:32:12;;;;;;;;;;;;;;;;;;5082250;28;19908;-76
2022/05/22 10:34:59;;;;;;;;;;;;;;;;;;5090638;28;19934;-77
2022/05/22 10:37:45;;;;;;;;;;;;;;;;;;5109576;27;19930;-78
2022/05/22 10:43:37;;;;;;;;;;;;;;;;;;5087253;28;19915;-77
2022/05/22 10:46:23;;;;;;;;;;;;;;;;;;5090015;28;20013;-78
2022/05/22 10:49:10;;;;;;;;;;;;;;;;;;5085099;28;19920;-77
2022/05/22 10:51:56;;;;;;;;;;;;;;;;;;5082773;28;19912;-80
2022/05/22 10:54:43;;;;;;;;;;;;;;;;;;5088425;28;20292;-79
2022/05/22 10:57:32;;;;;;;;;;;;;;;;;;5094916;28;19926;-79
2022/05/22 11:00:19;;;;;;;;;;;;;;;;;;5087655;28;19908;-79
2022/05/22 11:03:05;;;;;;;;;;;;;;;;;;5084337;28;19918;-78
2022/05/22 11:05:51;;;;;;;;;;;;;;;;;;5088270;28;20382;-79
2022/05/22 11:08:38;;;;;;;;;;;;;;;;;;5089633;28;19916;-79
2022/05/22 11:11:24;;;;;;;;;;;;;;;;;;5085995;28;19931;-80
2022/05/22 11:14:11;;;;;;;;;;;;;;;;;;5089311;28;19945;-79
2022/05/22 11:16:59;;;;;;;;;;;;;;;;;;5088160;28;19908;-80
2022/05/22 11:19:45;;;;;;;;;;;;;;;;;;5083958;28;19919;-80
2022/05/22 11:22:32;;;;;;;;;;;;;;;;;;5077402;28;19919;-81
2022/05/22 11:25:18;;;;;;;;;;;;;;;;;;5086270;28;19915;-81
2022/05/22 11:28:04;;;;;;;;;;;;;;;;;;5097711;28;19908;-81
2022/05/22 11:30:51;;;;;;;;;;;;;;;;;;5054909;28;20292;-82
2022/05/22 11:33:38;;;;;;;;;;;;;;;;;;5041149;28;19924;-81
2022/05/22 11:36:25;;;;;;;;;;;;;;;;;;5031107;28;19912;-81
2022/05/22 11:39:11;;;;;;;;;;;;;;;;;;5048997;28;19909;-80
2022/05/22 11:41:57;;;;;;;;;;;;;;;;;;5039174;28;19913;-79
2022/05/22 11:44:44;;;;;;;;;;;;;;;;;;5046622;28;19913;-77
2022/05/22 11:47:31;;;;;;;;;;;;;;;;;;5067634;28;19920;-78
2022/05/22 11:50:17;;;;;;;;;;;;;;;;;;5050290;28;20257;-77
2022/05/22 11:53:04;;;;;;;;;;;;;;;;;;5060272;28;19921;-78
2022/05/22 11:55:50;;;;;;;;;;;;;;;;;;5053303;28;19917;-77
2022/05/22 11:58:37;;;;;;;;;;;;;;;;;;5044955;28;19913;-79
2022/05/22 12:01:23;;;;;;;;;;;;;;;;;;5045965;28;19935;-79
2022/05/22 12:04:10;;;;;;;;;;;;;;;;;;5054260;28;19912;-79
2022/05/22 12:06:56;;;;;;;;;;;;;;;;;;5052569;28;20292;-77
2022/05/22 12:09:42;;;;;;;;;;;;;;;;;;5058232;28;19912;-80
2022/05/22 12:12:29;;;;;;;;;;;;;;;;;;5048404;28;20257;-79
2022/05/22 12:15:15;;;;;;;;;;;;;;;;;;5061955;28;19927;-80
2022/05/22 12:18:02;;;;;;;;;;;;;;;;;;5053665;28;20483;-80
2022/05/22 12:20:49;;;;;;;;;;;;;;;;;;5055753;28;19916;-78
2022/05/22 12:23:35;;;;;;;;;;;;;;;;;;5068689;28;19919;-80
2022/05/22 12:26:21;;;;;;;;;;;;;;;;;;5051789;28;19970;-80
2022/05/22 12:29:08;;;;;;;;;;;;;;;;;;5058332;28;19917;-79
2022/05/22 12:31:55;;;;;;;;;;;;;;;;;;5070872;28;19920;-78
2022/05/22 12:34:41;;;;;;;;;;;;;;;;;;5070366;28;19936;-83
2022/05/22 12:37:28;;;;;;;;;;;;;;;;;;5072254;28;19919;-81
2022/05/22 12:40:14;;;;;;;;;;;;;;;;;;5071852;28;19912;-82
2022/05/22 12:43:01;;;;;;;;;;;;;;;;;;5066052;28;19921;-82
2022/05/22 12:45:47;;;;;;;;;;;;;;;;;;5071688;28;19927;-82
2022/05/22 12:48:33;;;;;;;;;;;;;;;;;;5077913;28;19923;-83
2022/05/22 12:51:20;;;;;;;;;;;;;;;;;;5079136;28;19916;-83
2022/05/22 12:54:06;;;;;;;;;;;;;;;;;;5076496;28;19920;-79
2022/05/22 12:56:53;;;;;;;;;;;;;;;;;;5072795;28;19926;-82
2022/05/22 12:59:39;;;;;;;;;;;;;;;;;;5073772;28;19908;-82
2022/05/22 13:02:26;;;;;;;;;;;;;;;;;;5060771;28;19912;-81
2022/05/22 13:05:12;;;;;;;;;;;;;;;;;;5071106;28;20261;-78
2022/05/22 13:07:59;;;;;;;;;;;;;;;;;;5071226;28;19938;-79
2022/05/22 13:10:45;;;;;;;;;;;;;;;;;;5074554;28;19912;-79
2022/05/22 13:13:32;;;;;;;;;;;;;;;;;;5082662;28;20444;-78
2022/05/22 13:16:18;;;;;;;;;;;;;;;;;;5070918;28;19915;-78
2022/05/22 13:19:07;;;;;;;;;;;;;;;;;;5071454;28;19915;-76
2022/05/22 13:21:53;;;;;;;;;;;;;;;;;;5070224;28;20546;-76
2022/05/22 13:24:39;;;;;;;;;;;;;;;;;;5079387;28;19915;-79
2022/05/22 13:27:26;;;;;;;;;;;;;;;;;;5071961;28;19912;-79
2022/05/22 13:30:12;;;;;;;;;;;;;;;;;;5070701;28;20406;-77
2022/05/22 13:32:59;;;;;;;;;;;;;;;;;;5066094;28;19912;-79
2022/05/22 13:35:45;;;;;;;;;;;;;;;;;;5080938;28;19927;-75
2022/05/22 13:38:36;;;;;;;;;;;;;;;;;;5070246;28;20403;-75
2022/05/22 13:41:22;;;;;;;;;;;;;;;;;;5070838;28;19908;-74
2022/05/22 13:44:09;;;;;;;;;;;;;;;;;;5063390;28;19935;-74
2022/05/22 13:46:55;;;;;;;;;;;;;;;;;;5068689;28;20260;-74
2022/05/22 13:49:42;;;;;;;;;;;;;;;;;;5077652;28;19923;-74
2022/05/22 13:52:34;;;;;;;;;;;;;;;;;;5060194;28;19923;-76
2022/05/22 13:55:21;;;;;;;;;;;;;;;;;;5068854;28;20869;-74
2022/05/22 13:58:07;;;;;;;;;;;;;;;;;;5067540;28;19913;-76
2022/05/22 14:00:56;;;;;;;;;;;;;;;;;;5082661;28;19920;-76
2022/05/22 14:03:43;;;;;;;;;;;;;;;;;;5067746;28;19914;-77
2022/05/22 14:06:29;;;;;;;;;;;;;;;;;;5068436;28;20284;-76
2022/05/22 14:09:16;;;;;;;;;;;;;;;;;;5066587;28;19913;-78
2022/05/22 14:12:02;;;;;;;;;;;;;;;;;;5064618;28;19923;-73
2022/05/22 14:14:49;;;;;;;;;;;;;;;;;;5071877;28;20295;-73
2022/05/22 14:17:36;;;;;;;;;;;;;;;;;;5069212;28;19913;-72
2022/05/22 14:20:22;;;;;;;;;;;;;;;;;;5065069;28;19908;-72
2022/05/22 14:23:09;;;;;;;;;;;;;;;;;;5066539;28;19952;-73
2022/05/22 14:25:55;;;;;;;;;;;;;;;;;;5059458;28;19928;-73
2022/05/22 14:28:46;;;;;;;;;;;;;;;;;;5062481;28;19917;-72
2022/05/22 14:31:32;;;;;;;;;;;;;;;;;;5066841;28;20285;-72
2022/05/22 14:34:18;;;;;;;;;;;;;;;;;;5065714;28;19920;-75
2022/05/22 14:37:05;;;;;;;;;;;;;;;;;;5075250;28;19919;-74
2022/05/22 14:39:51;;;;;;;;;;;;;;;;;;5068670;28;19942;-76
2022/05/22 14:42:38;;;;;;;;;;;;;;;;;;5064559;28;19912;-72
2022/05/22 14:45:24;;;;;;;;;;;;;;;;;;5068136;28;20564;-73
2022/05/22 14:48:11;;;;;;;;;;;;;;;;;;5069437;28;20293;-73
2022/05/22 14:50:57;;;;;;;;;;;;;;;;;;5081729;28;20007;-72
2022/05/22 14:53:44;;;;;;;;;;;;;;;;;;5069107;28;20266;-74
2022/05/22 14:56:31;;;;;;;;;;;;;;;;;;5067093;28;19923;-74
2022/05/22 14:59:17;;;;;;;;;;;;;;;;;;5067649;28;19931;-74
2022/05/22 15:02:04;;;;;;;;;;;;;;;;;;5067942;28;19917;-73
2022/05/22 15:04:50;;;;;;;;;;;;;;;;;;5068212;28;19913;-72
2022/05/22 15:07:39;;;;;;;;;;;;;;;;;;5066531;28;19923;-73
2022/05/22 15:10:26;;;;;;;;;;;;;;;;;;5064016;28;19923;-73
2022/05/22 15:13:12;;;;;;;;;;;;;;;;;;5068443;28;20287;-75
2022/05/22 15:15:59;;;;;;;;;;;;;;;;;;5067574;28;19916;-74
2022/05/22 15:21:51;;;;;;;;;;;;;;;;;;5067717;28;19912;-74
2022/05/22 15:27:42;;;;;;;;;;;;;;;;;;5066734;28;20269;-74
2022/05/22 15:30:29;;;;;;;;;;;;;;;;;;5065718;28;19925;-74
2022/05/22 15:33:16;;;;;;;;;;;;;;;;;;5061499;28;19916;-75
2022/05/22 15:36:05;;;;;;;;;;;;;;;;;;5066591;28;19908;-75
2022/05/22 15:38:52;;;;;;;;;;;;;;;;;;5082704;28;19923;-74
2022/05/22 15:41:38;;;;;;;;;;;;;;;;;;5070231;28;19909;-75
2022/05/22 15:44:25;;;;;;;;;;;;;;;;;;5070610;28;19920;-75
2022/05/22 15:47:11;;;;;;;;;;;;;;;;;;5077289;28;19942;-74
2022/05/22 15:53:03;;;;;;;;;;;;;;;;;;5069846;28;19919;-75
2022/05/22 15:55:49;;;;;;;;;;;;;;;;;;5071499;28;20355;-75
2022/05/22 15:58:36;;;;;;;;;;;;;;;;;;5071741;28;19920;-75
2022/05/22 16:01:22;;;;;;;;;;;;;;;;;;5059393;28;19909;-75
2022/05/22 16:04:09;;;;;;;;;;;;;;;;;;5074037;28;19908;-75
2022/05/22 16:06:55;;;;;;;;;;;;;;;;;;5062909;28;19913;-75
2022/05/22 16:09:44;;;;;;;;;;;;;;;;;;5065139;28;20032;-75
2022/05/22 16:12:31;;;;;;;;;;;;;;;;;;5070548;28;19909;-75
2022/05/22 16:15:17;;;;;;;;;;;;;;;;;;5070478;28;19927;-75
2022/05/22 16:18:04;;;;;;;;;;;;;;;;;;5065459;28;19909;-75
2022/05/22 16:20:50;;;;;;;;;;;;;;;;;;5065063;28;19919;-75
2022/05/22 16:23:37;;;;;;;;;;;;;;;;;;5072289;28;19923;-73
2022/05/22 16:26:23;;;;;;;;;;;;;;;;;;5074772;28;19916;-73
2022/05/22 16:29:10;;;;;;;;;;;;;;;;;;5078260;28;20308;-73
2022/05/22 16:31:57;;;;;;;;;;;;;;;;;;5068204;28;19920;-74
2022/05/22 16:34:44;;;;;;;;;;;;;;;;;;5065680;28;20288;-74
2022/05/22 16:37:30;;;;;;;;;;;;;;;;;;5072889;28;19916;-75
2022/05/22 16:40:17;;;;;;;;;;;;;;;;;;5072529;28;19912;-74
2022/05/22 16:43:03;;;;;;;;;;;;;;;;;;5071807;28;19916;-74
2022/05/22 16:45:53;;;;;;;;;;;;;;;;;;5067877;28;20305;-75
2022/05/22 16:53:01;;;;;;;;;;;;;;;;;;5069171;28;19939;-74
2022/05/22 16:55:09;;;;;;;;;;;;;;;;;;5068010;28;19932;-74
2022/05/22 16:57:56;;;;;;;;;;;;;;;;;;5065477;28;20372;-74
2022/05/22 17:00:48;;;;;;;;;;;;;;;;;;5066961;28;19924;-74
2022/05/22 17:03:35;;;;;;;;;;;;;;;;;;5064990;28;19913;-75
2022/05/22 17:06:21;;;;;;;;;;;;;;;;;;5069046;28;19916;-73
2022/05/22 17:09:08;;;;;;;;;;;;;;;;;;5062843;28;20376;-74
2022/05/22 17:11:54;;;;;;;;;;;;;;;;;;5077260;28;19950;-74
2022/05/22 17:14:41;;;;;;;;;;;;;;;;;;5063150;28;19932;-74
2022/05/22 17:17:27;;;;;;;;;;;;;;;;;;5071838;28;19916;-74
2022/05/22 17:20:14;;;;;;;;;;;;;;;;;;5071968;28;19920;-74
2022/05/22 17:23:00;;;;;;;;;;;;;;;;;;5066591;28;19913;-75
2022/05/22 17:25:47;;;;;;;;;;;;;;;;;;5067905;28;19916;-74
2022/05/22 17:28:33;;;;;;;;;;;;;;;;;;5068888;28;19959;-74
2022/05/22 17:31:21;;;;;;;;;;;;;;;;;;5069302;28;20315;-74
2022/05/22 17:34:10;;;;;;;;;;;;;;;;;;5083385;28;19916;-73
2022/05/22 17:36:58;;;;;;;;;;;;;;;;;;5065637;28;19923;-75
2022/05/22 17:39:45;;;;;;;;;;;;;;;;;;5068800;28;19909;-75
2022/05/22 17:42:33;;;;;;;;;;;;;;;;;;5066460;28;19924;-74
2022/05/22 17:45:20;;;;;;;;;;;;;;;;;;5061727;28;20367;-74
2022/05/22 17:48:06;;;;;;;;;;;;;;;;;;5067700;28;19931;-74
2022/05/22 17:50:53;;;;;;;;;;;;;;;;;;5068939;28;19909;-74
2022/05/22 17:53:39;;;;;;;;;;;;;;;;;;5068155;28;20423;-74
2022/05/22 17:56:26;;;;;;;;;;;;;;;;;;5069533;28;20010;-73
2022/05/22 17:59:13;;;;;;;;;;;;;;;;;;5065648;28;20394;-74
2022/05/22 18:02:00;;;;;;;;;;;;;;;;;;5067286;28;19931;-73
2022/05/22 18:04:46;;;;;;;;;;;;;;;;;;5069597;28;19916;-73
2022/05/22 18:07:33;;;;;;;;;;;;;;;;;;5080105;28;20414;-74
2022/05/22 18:16:30;;;;;;;;;;;;;;;;;;5065673;28;19917;-73
2022/05/22 18:19:16;;;;;;;;;;;;;;;;;;5069980;28;19919;-72
2022/05/22 18:22:03;;;;;;;;;;;;;;;;;;5060305;28;19917;-71
2022/05/22 18:27:55;;;;;;;;;;;;;;;;;;5067243;28;19916;-76
2022/05/22 18:30:41;;;;;;;;;;;;;;;;;;5068947;28;19927;-73
2022/05/22 18:33:30;;;;;;;;;;;;;;;;;;5070906;28;20308;-73
2022/05/22 18:36:22;;;;;;;;;;;;;;;;;;5074942;28;19917;-73
2022/05/22 18:39:08;;;;;;;;;;;;;;;;;;5066454;28;20380;-73
2022/05/22 18:41:55;;;;;;;;;;;;;;;;;;5069344;28;19923;-74
2022/05/22 18:44:41;;;;;;;;;;;;;;;;;;5057453;28;20250;-73
2022/05/22 18:47:28;;;;;;;;;;;;;;;;;;5069721;28;19921;-75
2022/05/22 18:50:15;;;;;;;;;;;;;;;;;;5067606;28;19916;-73
2022/05/22 18:53:01;;;;;;;;;;;;;;;;;;5068848;28;19912;-73
2022/05/22 18:55:47;;;;;;;;;;;;;;;;;;5069180;28;19928;-73
2022/05/22 18:58:34;;;;;;;;;;;;;;;;;;5070639;28;19912;-73
2022/05/22 19:01:20;;;;;;;;;;;;;;;;;;5069374;28;19913;-73
2022/05/22 19:04:07;;;;;;;;;;;;;;;;;;5072902;28;19912;-73
2022/05/22 19:06:54;;;;;;;;;;;;;;;;;;5071187;28;19913;-73
2022/05/22 19:09:41;;;;;;;;;;;;;;;;;;5070781;28;19923;-73
2022/05/22 19:12:27;;;;;;;;;;;;;;;;;;5068930;28;19919;-73
2022/05/22 19:15:14;;;;;;;;;;;;;;;;;;5069502;28;19954;-73
2022/05/22 19:18:00;;;;;;;;;;;;;;;;;;5070665;28;20277;-73
2022/05/22 19:20:46;;;;;;;;;;;;;;;;;;5067128;28;19913;-73
2022/05/22 19:23:33;;;;;;;;;;;;;;;;;;5069507;28;20473;-73
2022/05/22 19:26:20;;;;;;;;;;;;;;;;;;5070246;28;19915;-73
2022/05/22 19:29:07;;;;;;;;;;;;;;;;;;5068343;28;19921;-74
2022/05/22 19:31:54;;;;;;;;;;;;;;;;;;5064852;28;19923;-74
2022/05/22 19:34:41;;;;;;;;;;;;;;;;;;5073428;28;19921;-74